Time;durP1;ratioP1;P1;durP2;ratioP2;P2;SDS_P1;SDS_P2;PMS_P1;PMS_P2;Temp;Humidity;BMP_temperature;BMP_pressure;BME280_temperature;BME280_humidity;BME280_pressure;Samples;Min_cycle;Max_cycle;Signal;HPM_P1;HPM_P2
2021/05/07 00:01:12;;;;;;;5.32;4.82;;;12.00;83.90;;;;;;5113701;27;20237;-62
2021/05/07 00:03:40;;;;;;;5.80;5.28;;;12.00;84.10;;;;;;5114520;27;20580;-62
2021/05/07 00:06:08;;;;;;;5.38;4.70;;;12.00;84.10;;;;;;5104512;27;20234;-61
2021/05/07 00:08:36;;;;;;;6.68;6.07;;;12.00;84.00;;;;;;5113796;27;20226;-62
2021/05/07 00:11:05;;;;;;;5.50;5.00;;;12.00;84.10;;;;;;5113840;28;20229;-62
2021/05/07 00:13:33;;;;;;;5.50;4.90;;;12.00;84.10;;;;;;5113257;28;20631;-61
2021/05/07 00:16:02;;;;;;;5.20;4.70;;;12.00;84.30;;;;;;5113171;28;20222;-61
2021/05/07 00:18:30;;;;;;;5.93;5.32;;;12.00;84.10;;;;;;5113216;27;20265;-63
2021/05/07 00:21:00;;;;;;;6.03;5.53;;;12.00;83.70;;;;;;5102063;27;20223;-61
2021/05/07 00:23:28;;;;;;;5.30;4.80;;;11.90;83.60;;;;;;5109698;27;20223;-61
2021/05/07 00:25:56;;;;;;;5.80;5.30;;;11.90;83.60;;;;;;5112926;27;20298;-62
2021/05/07 00:28:23;;;;;;;5.63;5.22;;;11.90;83.70;;;;;;5115996;27;20275;-62
2021/05/07 00:30:50;;;;;;;5.13;4.70;;;11.90;83.90;;;;;;5114461;27;20617;-62
2021/05/07 00:33:17;;;;;;;5.47;5.07;;;11.90;83.90;;;;;;5115790;27;20226;-62
2021/05/07 00:35:44;;;;;;;6.38;5.82;;;11.90;84.00;;;;;;5114231;27;20223;-62
2021/05/07 00:38:10;;;;;;;6.00;5.60;;;11.80;84.00;;;;;;5115098;27;20274;-62
2021/05/07 00:40:37;;;;;;;5.95;5.45;;;11.80;84.10;;;;;;5113585;27;20226;-62
2021/05/07 00:43:03;;;;;;;6.55;5.93;;;11.80;84.30;;;;;;5114642;27;20223;-62
2021/05/07 00:45:30;;;;;;;4.97;4.57;;;11.70;84.30;;;;;;5113848;27;20223;-62
2021/05/07 00:47:59;;;;;;;6.05;5.55;;;11.70;84.40;;;;;;5115016;27;20226;-61
2021/05/07 00:50:27;;;;;;;6.70;6.00;;;11.70;84.50;;;;;;5123112;27;20218;-62
2021/05/07 00:52:55;;;;;;;6.53;5.93;;;11.70;84.70;;;;;;5112161;27;20238;-61
2021/05/07 00:55:22;;;;;;;6.15;5.65;;;11.70;84.60;;;;;;5111543;27;20223;-62
2021/05/07 00:57:48;;;;;;;6.50;5.90;;;11.70;84.90;;;;;;5113336;27;20607;-62
2021/05/07 01:00:16;;;;;;;8.68;6.95;;;11.60;85.10;;;;;;5117285;27;20222;-62
2021/05/07 01:02:42;;;;;;;11.75;10.50;;;11.60;85.40;;;;;;5113729;27;20221;-62
2021/05/07 01:05:11;;;;;;;9.95;9.05;;;11.60;85.60;;;;;;5113723;27;20219;-63
2021/05/07 01:07:38;;;;;;;10.38;9.35;;;11.60;85.60;;;;;;5113016;27;20234;-63
2021/05/07 01:10:07;;;;;;;9.23;8.07;;;11.60;85.80;;;;;;5115858;28;20222;-63
2021/05/07 01:12:33;;;;;;;7.50;6.85;;;11.60;85.80;;;;;;5115157;27;20218;-62
2021/05/07 01:15:04;;;;;;;6.85;6.18;;;11.60;86.10;;;;;;5112492;28;20230;-63
2021/05/07 01:17:31;;;;;;;6.15;5.63;;;11.60;86.10;;;;;;5107525;27;20612;-61
2021/05/07 01:20:06;;;;;;;5.70;5.10;;;11.60;86.10;;;;;;5116244;27;20233;-61
2021/05/07 01:22:32;;;;;;;5.65;5.15;;;11.60;86.00;;;;;;5117119;28;20675;-62
2021/05/07 01:24:59;;;;;;;6.47;5.88;;;11.60;86.10;;;;;;5124410;27;20561;-62
2021/05/07 01:27:25;;;;;;;6.22;5.63;;;11.60;86.20;;;;;;5117118;27;20222;-62
2021/05/07 01:29:52;;;;;;;6.78;6.18;;;11.60;86.40;;;;;;5123161;27;20223;-63
2021/05/07 01:32:18;;;;;;;7.05;6.50;;;11.60;86.70;;;;;;5127738;27;20222;-62
2021/05/07 01:34:44;;;;;;;5.72;5.22;;;11.60;86.60;;;;;;5115942;27;20720;-62
2021/05/07 01:37:12;;;;;;;6.53;5.93;;;11.50;86.60;;;;;;5125425;27;20222;-62
2021/05/07 01:39:38;;;;;;;9.18;6.07;;;11.60;86.70;;;;;;5120550;27;20226;-61
2021/05/07 01:42:06;;;;;;;7.22;6.55;;;11.50;86.90;;;;;;5118057;27;20329;-62
2021/05/07 01:44:32;;;;;;;6.90;6.20;;;11.50;87.00;;;;;;5114462;27;20283;-63
2021/05/07 01:46:59;;;;;;;5.63;4.90;;;11.50;87.10;;;;;;5115643;27;20245;-62
2021/05/07 01:49:25;;;;;;;6.55;5.82;;;11.50;87.10;;;;;;5116664;27;20226;-62
2021/05/07 01:51:51;;;;;;;6.95;6.25;;;11.50;87.30;;;;;;5115884;27;20234;-61
2021/05/07 01:54:19;;;;;;;5.60;5.10;;;11.50;87.40;;;;;;5119570;27;20233;-61
2021/05/07 01:56:45;;;;;;;5.82;5.43;;;11.50;87.80;;;;;;5112880;27;20222;-61
2021/05/07 01:59:12;;;;;;;5.45;5.03;;;11.50;88.00;;;;;;5131227;27;20229;-62
2021/05/07 02:01:38;;;;;;;6.38;5.82;;;11.40;87.80;;;;;;5127228;27;20230;-62
2021/05/07 02:04:05;;;;;;;6.10;5.60;;;11.40;88.00;;;;;;5112916;27;20275;-62
2021/05/07 02:06:31;;;;;;;4.63;4.22;;;11.40;87.80;;;;;;5115976;27;20214;-62
2021/05/07 02:08:58;;;;;;;4.85;4.45;;;11.40;87.80;;;;;;5124259;27;20222;-62
2021/05/07 02:11:25;;;;;;;5.70;5.20;;;11.40;87.80;;;;;;5115983;27;20688;-62
2021/05/07 02:13:52;;;;;;;5.85;5.35;;;11.40;88.00;;;;;;5115810;27;20218;-62
2021/05/07 02:16:18;;;;;;;5.60;5.15;;;11.40;88.00;;;;;;5123701;27;20223;-62
2021/05/07 02:18:44;;;;;;;7.13;5.93;;;11.40;87.80;;;;;;5126677;27;20229;-62
2021/05/07 02:21:11;;;;;;;4.90;4.50;;;11.40;87.90;;;;;;5123343;27;20677;-61
2021/05/07 02:23:38;;;;;;;4.95;4.65;;;11.40;87.80;;;;;;5126478;27;20225;-62
2021/05/07 02:26:04;;;;;;;5.38;4.90;;;11.40;88.00;;;;;;5118061;27;20616;-62
2021/05/07 02:28:32;;;;;;;5.93;5.35;;;11.40;88.10;;;;;;5114613;27;20223;-63
2021/05/07 02:30:58;;;;;;;5.85;5.35;;;11.40;88.80;;;;;;5115164;27;20567;-62
2021/05/07 02:33:25;;;;;;;4.95;4.63;;;11.40;88.00;;;;;;5117500;27;20211;-62
2021/05/07 02:35:54;;;;;;;7.07;6.47;;;11.40;88.20;;;;;;5114389;27;20210;-63
2021/05/07 02:38:20;;;;;;;6.47;5.97;;;11.30;88.20;;;;;;5125678;27;20922;-63
2021/05/07 02:40:46;;;;;;;6.03;5.43;;;11.30;88.20;;;;;;5121642;27;20218;-62
2021/05/07 02:43:13;;;;;;;5.43;5.00;;;11.30;89.30;;;;;;5125437;27;20229;-62
2021/05/07 02:45:40;;;;;;;5.68;5.28;;;11.30;88.70;;;;;;5119293;27;20223;-62
2021/05/07 02:48:07;;;;;;;5.97;5.47;;;11.30;88.70;;;;;;5125007;27;20298;-62
2021/05/07 02:50:33;;;;;;;8.63;6.10;;;11.30;88.80;;;;;;5121513;27;20234;-61
2021/05/07 02:53:00;;;;;;;5.55;5.15;;;11.30;88.60;;;;;;5126094;27;20274;-62
2021/05/07 02:55:26;;;;;;;6.43;5.93;;;11.20;88.40;;;;;;5121349;27;20222;-62
2021/05/07 02:57:53;;;;;;;6.57;6.05;;;11.30;88.50;;;;;;5105992;27;20676;-62
2021/05/07 03:00:21;;;;;;;5.70;5.20;;;11.20;88.40;;;;;;5115386;27;20242;-61
2021/05/07 03:02:49;;;;;;;5.85;5.45;;;11.20;88.50;;;;;;5114393;27;20249;-63
2021/05/07 03:05:16;;;;;;;6.53;5.93;;;11.20;88.80;;;;;;5114294;27;20223;-62
2021/05/07 03:07:42;;;;;;;6.15;5.55;;;11.20;88.80;;;;;;5114951;27;20227;-62
2021/05/07 03:10:10;;;;;;;6.32;5.75;;;11.10;88.80;;;;;;5112571;27;20219;-62
2021/05/07 03:12:36;;;;;;;7.43;6.68;;;11.10;89.00;;;;;;5112381;27;20226;-61
2021/05/07 03:15:03;;;;;;;6.50;6.03;;;11.10;89.10;;;;;;5112193;27;20311;-62
2021/05/07 03:17:30;;;;;;;7.00;6.40;;;11.00;89.20;;;;;;5112542;27;20287;-61
2021/05/07 03:19:57;;;;;;;6.53;5.70;;;11.00;89.30;;;;;;5113941;27;20297;-61
2021/05/07 03:22:24;;;;;;;5.63;5.13;;;11.00;89.40;;;;;;5114194;27;20230;-61
2021/05/07 03:24:50;;;;;;;6.90;5.65;;;11.00;89.40;;;;;;5113632;27;20226;-61
2021/05/07 03:27:19;;;;;;;5.65;5.25;;;11.00;89.50;;;;;;5114238;27;20230;-62
2021/05/07 03:29:46;;;;;;;5.80;5.30;;;11.00;90.10;;;;;;5113891;27;20242;-62
2021/05/07 03:32:12;;;;;;;10.23;7.05;;;11.00;90.10;;;;;;5114037;28;20227;-62
2021/05/07 03:34:39;;;;;;;10.27;9.27;;;11.00;89.90;;;;;;5113738;27;20231;-61
2021/05/07 03:37:06;;;;;;;12.70;11.60;;;10.90;89.80;;;;;;5112039;27;20230;-61
2021/05/07 03:39:32;;;;;;;19.67;17.58;;;10.90;89.70;;;;;;5113254;27;20320;-62
2021/05/07 03:41:59;;;;;;;19.35;17.55;;;10.90;89.60;;;;;;5113931;27;20238;-62
2021/05/07 03:44:25;;;;;;;18.33;16.52;;;11.00;89.40;;;;;;5114497;27;20560;-62
2021/05/07 03:46:52;;;;;;;18.02;15.48;;;10.90;89.10;;;;;;5113739;27;20303;-62
2021/05/07 03:49:18;;;;;;;16.05;14.55;;;10.90;88.90;;;;;;5114293;27;20351;-62
2021/05/07 03:51:45;;;;;;;16.20;14.40;;;10.90;88.80;;;;;;5114340;27;20284;-62
2021/05/07 03:54:12;;;;;;;14.95;13.50;;;10.90;88.60;;;;;;5113736;27;20223;-62
2021/05/07 03:56:38;;;;;;;12.50;11.30;;;10.90;88.30;;;;;;5113946;27;20279;-62
2021/05/07 03:59:05;;;;;;;10.65;9.52;;;10.90;88.40;;;;;;5113538;27;20243;-62
2021/05/07 04:01:31;;;;;;;9.50;8.65;;;10.90;87.50;;;;;;5113852;27;20274;-62
2021/05/07 04:03:58;;;;;;;9.25;8.35;;;10.90;87.40;;;;;;5113757;27;20227;-62
2021/05/07 04:06:25;;;;;;;8.80;8.00;;;11.00;87.50;;;;;;5113941;27;20295;-62
2021/05/07 04:09:01;;;;;;;7.28;6.68;;;11.00;88.20;;;;;;5113493;27;20331;-62
2021/05/07 04:11:31;;;;;;;8.05;6.97;;;10.90;87.10;;;;;;5114031;27;20230;-62
2021/05/07 04:13:58;;;;;;;8.52;7.63;;;11.00;87.00;;;;;;5113485;27;20414;-62
2021/05/07 04:16:24;;;;;;;8.35;7.55;;;10.90;87.00;;;;;;5113679;27;20219;-62
2021/05/07 04:18:55;;;;;;;8.40;7.50;;;11.00;86.90;;;;;;5113328;27;20244;-62
2021/05/07 04:21:22;;;;;;;8.27;7.45;;;10.90;86.70;;;;;;5113781;27;20676;-62
2021/05/07 04:23:49;;;;;;;11.70;8.32;;;10.90;86.80;;;;;;5113440;27;20227;-62
2021/05/07 04:26:15;;;;;;;8.40;7.45;;;11.00;87.10;;;;;;5113733;27;21069;-62
2021/05/07 04:28:43;;;;;;;9.25;8.15;;;11.00;87.20;;;;;;5113405;27;20226;-62
2021/05/07 04:31:09;;;;;;;8.48;7.68;;;11.00;87.50;;;;;;5113078;27;20227;-62
2021/05/07 04:33:35;;;;;;;9.15;7.60;;;11.00;87.60;;;;;;5113659;27;20295;-62
2021/05/07 04:36:02;;;;;;;11.13;7.75;;;11.00;87.60;;;;;;5112975;27;20567;-62
2021/05/07 04:38:28;;;;;;;9.48;8.25;;;11.00;87.70;;;;;;5113542;27;20233;-62
2021/05/07 04:40:55;;;;;;;8.57;7.68;;;11.00;86.20;;;;;;5112835;27;20245;-62
2021/05/07 04:43:21;;;;;;;8.10;7.30;;;11.00;86.30;;;;;;5113322;27;20231;-62
2021/05/07 04:45:50;;;;;;;7.45;6.82;;;11.00;86.10;;;;;;5113357;27;20222;-62
2021/05/07 04:48:17;;;;;;;8.63;7.78;;;10.90;85.90;;;;;;5112591;27;20231;-62
2021/05/07 04:50:44;;;;;;;9.20;8.40;;;11.00;85.90;;;;;;5112849;27;20283;-62
2021/05/07 04:53:11;;;;;;;11.05;8.88;;;11.00;85.40;;;;;;5112990;27;20219;-62
2021/05/07 04:55:38;;;;;;;12.05;10.75;;;11.00;83.90;;;;;;5113270;27;20253;-62
2021/05/07 04:58:05;;;;;;;10.55;9.25;;;11.10;83.60;;;;;;5112638;27;20745;-62
2021/05/07 05:00:32;;;;;;;17.65;11.77;;;11.00;83.90;;;;;;5113067;27;20229;-62
2021/05/07 05:02:59;;;;;;;11.55;10.27;;;11.00;84.30;;;;;;5112651;27;20226;-62
2021/05/07 05:05:26;;;;;;;10.93;9.70;;;10.90;83.70;;;;;;5113053;27;20218;-62
2021/05/07 05:07:55;;;;;;;11.48;8.32;;;10.90;83.70;;;;;;5113200;27;20230;-62
2021/05/07 05:10:22;;;;;;;8.30;7.50;;;10.90;83.30;;;;;;5112635;27;20222;-62
2021/05/07 05:12:49;;;;;;;9.02;8.27;;;10.80;82.90;;;;;;5112892;27;20226;-62
2021/05/07 05:15:16;;;;;;;7.40;6.47;;;10.90;82.40;;;;;;5112555;27;20234;-62
2021/05/07 05:17:42;;;;;;;7.88;7.07;;;10.80;82.50;;;;;;5113107;27;20268;-62
2021/05/07 05:20:11;;;;;;;7.68;6.15;;;10.80;82.80;;;;;;5112799;27;20222;-62
2021/05/07 05:22:39;;;;;;;8.80;5.22;;;10.80;82.50;;;;;;5112938;27;20227;-62
2021/05/07 05:25:06;;;;;;;7.10;6.10;;;10.70;81.20;;;;;;5112481;27;20600;-62
2021/05/07 05:27:34;;;;;;;9.45;5.30;;;10.70;81.00;;;;;;5112873;27;20226;-62
2021/05/07 05:30:01;;;;;;;9.23;5.93;;;10.60;81.10;;;;;;5112492;27;20222;-62
2021/05/07 05:32:27;;;;;;;5.55;4.68;;;10.60;81.00;;;;;;5112758;27;20549;-62
2021/05/07 05:34:54;;;;;;;4.28;3.92;;;10.70;80.40;;;;;;5112854;27;20692;-62
2021/05/07 05:37:22;;;;;;;5.97;4.82;;;10.60;81.00;;;;;;5112410;28;20301;-62
2021/05/07 05:39:48;;;;;;;6.88;4.93;;;10.60;81.60;;;;;;5112554;28;20215;-62
2021/05/07 05:42:15;;;;;;;6.35;4.82;;;10.50;82.60;;;;;;5112049;28;20226;-62
2021/05/07 05:44:41;;;;;;;6.53;4.35;;;10.50;83.40;;;;;;5112837;28;20611;-62
2021/05/07 05:47:08;;;;;;;5.85;4.43;;;10.50;84.00;;;;;;5112025;27;20681;-63
2021/05/07 05:49:34;;;;;;;5.53;4.57;;;10.50;83.90;;;;;;5112803;27;20221;-62
2021/05/07 05:52:01;;;;;;;7.22;3.85;;;10.50;84.40;;;;;;5112163;27;20242;-59
2021/05/07 05:54:28;;;;;;;3.30;3.00;;;10.50;84.00;;;;;;5112427;27;20535;-61
2021/05/07 05:56:55;;;;;;;3.72;3.42;;;10.50;84.30;;;;;;5112477;27;20214;-62
2021/05/07 05:59:21;;;;;;;6.82;3.88;;;10.50;84.70;;;;;;5112030;27;20230;-61
2021/05/07 06:01:48;;;;;;;3.80;3.38;;;10.50;84.40;;;;;;5112476;27;20219;-62
2021/05/07 06:04:16;;;;;;;4.30;3.72;;;10.50;85.10;;;;;;5115951;27;20566;-61
2021/05/07 06:06:42;;;;;;;7.00;3.40;;;10.50;85.60;;;;;;5116048;27;20314;-62
2021/05/07 06:09:09;;;;;;;5.32;3.40;;;10.50;84.80;;;;;;5115820;27;20278;-62
2021/05/07 06:11:36;;;;;;;5.75;3.70;;;10.50;85.70;;;;;;5116168;27;20354;-61
2021/05/07 06:14:03;;;;;;;5.90;3.85;;;10.50;85.60;;;;;;5115691;27;20219;-61
2021/05/07 06:16:29;;;;;;;4.35;4.00;;;10.50;86.00;;;;;;5116340;27;20313;-61
2021/05/07 06:18:56;;;;;;;3.40;3.10;;;10.50;85.90;;;;;;5116091;27;20260;-62
2021/05/07 06:21:22;;;;;;;4.22;3.78;;;10.50;86.20;;;;;;5115474;27;20344;-61
2021/05/07 06:23:48;;;;;;;4.90;3.70;;;10.50;85.80;;;;;;5115873;27;20218;-62
2021/05/07 06:26:15;;;;;;;7.13;3.17;;;10.60;86.70;;;;;;5115580;27;20222;-61
2021/05/07 06:28:42;;;;;;;5.72;3.10;;;10.60;86.90;;;;;;5115827;27;20539;-62
2021/05/07 06:31:09;;;;;;;4.95;3.22;;;10.50;87.40;;;;;;5095658;28;20219;-62
2021/05/07 06:33:36;;;;;;;3.05;2.58;;;10.50;88.50;;;;;;5095139;28;20280;-62
2021/05/07 06:36:03;;;;;;;4.82;4.53;;;10.50;87.80;;;;;;5094825;28;20238;-62
2021/05/07 06:38:29;;;;;;;5.35;4.25;;;10.50;87.90;;;;;;5094387;28;20230;-62
2021/05/07 06:40:56;;;;;;;6.45;3.53;;;10.40;88.00;;;;;;5095160;28;20223;-62
2021/05/07 06:43:23;;;;;;;5.45;3.53;;;10.40;88.70;;;;;;5094875;28;20306;-62
2021/05/07 06:45:51;;;;;;;6.00;5.03;;;10.40;89.80;;;;;;5103983;27;20275;-62
2021/05/07 06:48:17;;;;;;;10.27;9.10;;;10.40;90.90;;;;;;5114944;27;20233;-62
2021/05/07 06:50:44;;;;;;;14.38;12.75;;;10.40;91.40;;;;;;5115799;27;20230;-62
2021/05/07 06:53:10;;;;;;;21.02;18.83;;;10.40;91.80;;;;;;5115048;27;20336;-62
2021/05/07 06:55:37;;;;;;;12.57;11.20;;;10.40;92.00;;;;;;5115476;27;20226;-62
2021/05/07 06:58:06;;;;;;;11.70;10.60;;;10.40;92.40;;;;;;5095012;28;20619;-62
2021/05/07 07:00:33;;;;;;;10.48;8.40;;;10.40;91.90;;;;;;5094237;28;20223;-61
2021/05/07 07:03:01;;;;;;;7.63;7.07;;;10.30;91.90;;;;;;5094803;28;20230;-61
2021/05/07 07:05:27;;;;;;;6.78;6.38;;;10.30;92.10;;;;;;5094534;28;20219;-63
2021/05/07 07:07:55;;;;;;;3.80;3.55;;;10.20;92.10;;;;;;5094627;28;20227;-62
2021/05/07 07:10:22;;;;;;;6.47;3.13;;;10.20;92.10;;;;;;5094206;28;20224;-63
2021/05/07 07:12:48;;;;;;;3.40;2.75;;;10.10;92.00;;;;;;5103270;28;20298;-62
2021/05/07 07:15:16;;;;;;;5.28;3.10;;;10.20;92.20;;;;;;5114519;27;20223;-62
2021/05/07 07:17:42;;;;;;;6.03;3.50;;;10.10;92.30;;;;;;5114832;28;20241;-61
2021/05/07 07:20:11;;;;;;;5.35;3.33;;;10.10;92.90;;;;;;5114827;28;20223;-62
2021/05/07 07:22:38;;;;;;;3.15;2.50;;;10.10;92.70;;;;;;5114702;28;20285;-62
2021/05/07 07:25:05;;;;;;;6.63;2.85;;;10.10;92.60;;;;;;5114757;27;20249;-62
2021/05/07 07:27:32;;;;;;;3.58;2.95;;;10.10;92.80;;;;;;5114333;28;20668;-62
2021/05/07 07:29:59;;;;;;;5.15;2.50;;;10.00;92.90;;;;;;5114887;27;20226;-62
2021/05/07 07:32:27;;;;;;;3.20;2.63;;;10.10;93.20;;;;;;5114275;28;20459;-62
2021/05/07 07:34:56;;;;;;;4.03;3.17;;;10.00;93.50;;;;;;5114483;27;20242;-62
2021/05/07 07:37:24;;;;;;;4.63;3.17;;;10.00;93.70;;;;;;5114083;28;20688;-62
2021/05/07 07:39:51;;;;;;;4.07;3.20;;;9.90;94.70;;;;;;5114484;28;20237;-62
2021/05/07 07:42:18;;;;;;;4.38;3.00;;;9.90;95.10;;;;;;5114109;27;20223;-62
2021/05/07 07:44:45;;;;;;;3.35;3.05;;;9.90;94.80;;;;;;5114312;28;20303;-62
2021/05/07 07:47:12;;;;;;;8.55;4.35;;;9.90;95.40;;;;;;5094085;28;20334;-62
2021/05/07 07:49:38;;;;;;;4.75;3.60;;;9.90;95.50;;;;;;5106316;27;20251;-62
2021/05/07 07:52:08;;;;;;;5.78;3.63;;;9.80;95.60;;;;;;5114362;27;20310;-62
2021/05/07 07:54:36;;;;;;;3.45;3.15;;;9.70;96.00;;;;;;5113963;27;20680;-62
2021/05/07 07:57:03;;;;;;;4.55;3.95;;;9.60;96.40;;;;;;5113964;27;20222;-62
2021/05/07 07:59:30;;;;;;;2.90;2.70;;;9.50;96.60;;;;;;5113387;27;20218;-62
2021/05/07 08:01:56;;;;;;;3.92;3.35;;;9.50;97.00;;;;;;5113954;27;20228;-62
2021/05/07 08:04:23;;;;;;;3.47;3.17;;;9.50;97.30;;;;;;5113591;27;20284;-62
2021/05/07 08:06:50;;;;;;;5.85;3.40;;;9.40;97.90;;;;;;5113979;27;20230;-62
2021/05/07 08:09:17;;;;;;;6.97;2.97;;;9.40;98.40;;;;;;5113577;27;20266;-62
2021/05/07 08:11:44;;;;;;;4.63;2.72;;;9.40;98.30;;;;;;5113853;27;20672;-62
2021/05/07 08:14:11;;;;;;;3.97;2.85;;;9.30;98.30;;;;;;5113929;27;20242;-62
2021/05/07 08:16:38;;;;;;;5.13;3.30;;;9.30;98.70;;;;;;5113306;27;20225;-62
2021/05/07 08:19:05;;;;;;;4.22;3.45;;;9.20;99.00;;;;;;5113692;27;20218;-62
2021/05/07 08:21:34;;;;;;;7.32;4.95;;;9.20;99.50;;;;;;5113230;27;20691;-62
2021/05/07 08:24:01;;;;;;;8.25;3.60;;;9.20;99.50;;;;;;5113545;27;20297;-61
2021/05/07 08:26:28;;;;;;;7.28;3.17;;;9.20;99.90;;;;;;5112464;27;20307;-62
2021/05/07 08:28:55;;;;;;;3.38;3.00;;;9.10;99.90;;;;;;5113576;27;20222;-63
2021/05/07 08:31:28;;;;;;;6.07;3.22;;;9.00;99.90;;;;;;5113063;27;20256;-62
2021/05/07 08:33:54;;;;;;;7.28;3.55;;;9.00;99.90;;;;;;5113377;27;20223;-62
2021/05/07 08:36:21;;;;;;;4.72;3.20;;;8.90;99.90;;;;;;5113074;27;20222;-62
2021/05/07 08:38:48;;;;;;;4.82;3.15;;;8.90;99.90;;;;;;5113177;27;20233;-62
2021/05/07 08:41:17;;;;;;;5.47;3.20;;;8.80;99.90;;;;;;5113354;27;20246;-62
2021/05/07 08:43:44;;;;;;;5.18;2.50;;;8.70;99.90;;;;;;5113140;27;20218;-61
2021/05/07 08:46:12;;;;;;;4.82;2.92;;;8.70;99.90;;;;;;5113283;27;20250;-63
2021/05/07 08:48:39;;;;;;;4.18;2.70;;;8.60;99.90;;;;;;5112735;27;20233;-62
2021/05/07 08:51:06;;;;;;;3.83;3.22;;;8.60;99.90;;;;;;5113439;28;20233;-62
2021/05/07 08:53:32;;;;;;;10.60;4.15;;;8.50;99.90;;;;;;5112729;28;20567;-62
2021/05/07 08:56:03;;;;;;;4.38;3.20;;;8.50;99.90;;;;;;5113026;28;20219;-62
2021/05/07 08:58:30;;;;;;;3.22;2.67;;;8.50;99.90;;;;;;5112738;27;20241;-61
2021/05/07 09:00:57;;;;;;;3.42;3.13;;;8.40;99.90;;;;;;5113060;27;20214;-61
2021/05/07 09:03:25;;;;;;;5.22;3.85;;;8.40;99.90;;;;;;5112567;27;20234;-62
2021/05/07 09:05:51;;;;;;;3.97;3.58;;;8.30;99.90;;;;;;5113131;27;20230;-62
2021/05/07 09:08:18;;;;;;;3.40;3.10;;;8.30;99.90;;;;;;5112696;27;20569;-62
2021/05/07 09:10:46;;;;;;;3.28;2.97;;;8.30;99.90;;;;;;5112541;27;20289;-62
2021/05/07 09:13:19;;;;;;;3.75;3.40;;;8.30;99.90;;;;;;5113165;27;20230;-62
2021/05/07 09:15:47;;;;;;;3.20;3.00;;;8.10;99.90;;;;;;5112908;27;20226;-61
2021/05/07 09:18:15;;;;;;;5.35;3.10;;;8.10;99.90;;;;;;5112903;27;20226;-62
2021/05/07 09:20:46;;;;;;;2.80;2.60;;;8.10;99.90;;;;;;5112684;27;20226;-61
2021/05/07 09:23:13;;;;;;;10.00;3.88;;;8.00;99.90;;;;;;5112717;27;20223;-62
2021/05/07 09:25:41;;;;;;;3.25;3.00;;;7.90;99.90;;;;;;5112345;27;20306;-62
2021/05/07 09:28:12;;;;;;;5.72;4.00;;;7.80;99.90;;;;;;5112579;27;20222;-62
2021/05/07 09:30:39;;;;;;;2.90;2.70;;;7.80;99.90;;;;;;5112367;27;20287;-62
2021/05/07 09:33:08;;;;;;;5.75;3.08;;;7.70;99.90;;;;;;5112852;27;20597;-62
2021/05/07 09:35:35;;;;;;;7.60;4.30;;;7.70;99.90;;;;;;5112506;27;20226;-62
2021/05/07 09:38:04;;;;;;;4.03;3.38;;;7.60;99.90;;;;;;5116343;27;20351;-62
2021/05/07 09:40:30;;;;;;;2.92;2.70;;;7.60;99.90;;;;;;5116283;27;20227;-62
2021/05/07 09:43:06;;;;;;;3.75;3.45;;;7.60;99.90;;;;;;5116764;27;20234;-62
2021/05/07 09:45:34;;;;;;;5.35;3.70;;;7.60;99.90;;;;;;5116010;27;20222;-62
2021/05/07 09:48:01;;;;;;;4.40;3.97;;;7.60;99.90;;;;;;5116637;27;20226;-62
2021/05/07 09:50:36;;;;;;;6.10;3.55;;;7.60;99.90;;;;;;5116235;27;20218;-62
2021/05/07 09:53:15;;;;;;;4.05;3.42;;;7.60;99.90;;;;;;5116622;27;20214;-62
2021/05/07 09:55:43;;;;;;;3.17;2.88;;;7.50;99.90;;;;;;5116054;27;20219;-62
2021/05/07 09:58:10;;;;;;;5.07;2.90;;;7.60;99.90;;;;;;5116311;27;20230;-62
2021/05/07 10:00:36;;;;;;;3.20;2.75;;;7.60;99.90;;;;;;5115914;27;20222;-62
2021/05/07 10:03:03;;;;;;;6.03;2.85;;;7.70;99.90;;;;;;5116197;27;20237;-62
2021/05/07 10:05:30;;;;;;;2.60;2.08;;;7.70;99.90;;;;;;5115431;27;20219;-62
2021/05/07 10:07:58;;;;;;;2.95;2.38;;;7.80;99.90;;;;;;5116458;27;20545;-62
2021/05/07 10:10:31;;;;;;;2.47;1.73;;;7.80;99.90;;;;;;5116316;27;20240;-61
2021/05/07 10:12:59;;;;;;;2.22;1.95;;;7.90;99.90;;;;;;5116088;27;20222;-62
2021/05/07 10:15:27;;;;;;;2.08;1.90;;;7.90;99.90;;;;;;5115956;27;20229;-61
2021/05/07 10:17:54;;;;;;;5.55;1.80;;;7.90;99.90;;;;;;5116201;27;20230;-63
2021/05/07 10:20:25;;;;;;;2.17;1.85;;;8.00;99.90;;;;;;5116054;27;20719;-62
2021/05/07 10:22:52;;;;;;;5.30;2.15;;;8.00;99.90;;;;;;5114733;27;20299;-63
2021/05/07 10:25:22;;;;;;;1.88;1.50;;;8.10;99.90;;;;;;5114923;27;20234;-62
2021/05/07 10:27:52;;;;;;;2.40;1.70;;;8.10;99.90;;;;;;5114039;27;20275;-62
2021/05/07 10:30:29;;;;;;;1.75;1.65;;;8.20;99.90;;;;;;5115087;27;20676;-63
2021/05/07 10:33:01;;;;;;;2.38;1.40;;;8.20;99.90;;;;;;5114766;27;20705;-63
2021/05/07 10:35:32;;;;;;;2.60;1.90;;;8.30;99.90;;;;;;5114855;27;20676;-62
2021/05/07 10:38:10;;;;;;;1.35;1.25;;;8.40;99.90;;;;;;5115372;27;20645;-62
2021/05/07 10:40:39;;;;;;;1.60;1.50;;;8.60;99.90;;;;;;5115127;27;20813;-63
2021/05/07 10:43:07;;;;;;;2.00;1.83;;;8.70;99.90;;;;;;5115475;27;20231;-62
2021/05/07 10:45:50;;;;;;;2.15;1.77;;;8.80;99.90;;;;;;5115491;27;20684;-62
2021/05/07 10:48:20;;;;;;;3.35;1.92;;;8.90;99.90;;;;;;5114740;27;20241;-62
2021/05/07 10:50:51;;;;;;;2.25;2.05;;;9.00;99.90;;;;;;5115618;27;20226;-61
2021/05/07 10:53:25;;;;;;;2.03;1.90;;;9.20;99.90;;;;;;5114911;27;20225;-61
2021/05/07 10:55:52;;;;;;;2.75;2.17;;;9.30;99.90;;;;;;5114384;27;20225;-62
2021/05/07 10:58:30;;;;;;;2.88;2.45;;;9.50;99.90;;;;;;5128284;27;20252;-62
2021/05/07 11:00:56;;;;;;;2.60;2.40;;;9.60;99.90;;;;;;5121640;27;20214;-62
2021/05/07 11:03:23;;;;;;;3.10;2.05;;;9.60;99.90;;;;;;5133010;27;20399;-63
2021/05/07 11:05:51;;;;;;;7.72;2.25;;;9.70;99.90;;;;;;5112506;27;20543;-62
2021/05/07 11:08:19;;;;;;;4.10;3.20;;;9.80;99.90;;;;;;5109597;27;20223;-62
2021/05/07 11:10:48;;;;;;;3.35;2.58;;;9.90;99.90;;;;;;5116126;27;20222;-62
2021/05/07 11:13:15;;;;;;;2.88;2.50;;;10.00;99.90;;;;;;5114415;27;20475;-62
2021/05/07 11:15:42;;;;;;;4.15;2.38;;;10.00;99.90;;;;;;5114178;27;20210;-62
2021/05/07 11:18:11;;;;;;;4.20;2.58;;;10.10;99.90;;;;;;5114626;27;20607;-62
2021/05/07 11:20:40;;;;;;;3.13;2.45;;;10.20;99.90;;;;;;5114145;27;20283;-63
2021/05/07 11:23:10;;;;;;;4.18;3.88;;;10.30;99.90;;;;;;5114477;27;20219;-62
2021/05/07 11:25:37;;;;;;;4.43;3.10;;;10.30;99.90;;;;;;5114873;27;20226;-63
2021/05/07 11:28:14;;;;;;;6.63;3.20;;;10.30;99.90;;;;;;5114891;27;20222;-62
2021/05/07 11:30:53;;;;;;;6.82;5.65;;;10.40;99.90;;;;;;5114706;27;20229;-63
2021/05/07 11:33:22;;;;;;;4.65;2.50;;;10.50;99.90;;;;;;5110055;27;20226;-63
2021/05/07 11:36:03;;;;;;;3.40;3.10;;;10.60;98.80;;;;;;5114318;27;20218;-63
2021/05/07 11:38:30;;;;;;;2.70;2.50;;;10.60;98.60;;;;;;5115988;27;20322;-63
2021/05/07 11:40:56;;;;;;;2.83;2.53;;;10.70;97.30;;;;;;5114963;27;20226;-62
2021/05/07 11:43:26;;;;;;;7.18;3.50;;;10.70;96.90;;;;;;5115319;27;20222;-62
2021/05/07 11:46:03;;;;;;;3.22;2.92;;;10.70;97.30;;;;;;5113876;27;20218;-62
2021/05/07 11:48:30;;;;;;;3.40;2.88;;;10.80;98.00;;;;;;5112725;27;20234;-62
2021/05/07 11:50:56;;;;;;;4.78;3.50;;;10.90;97.30;;;;;;5114889;27;20236;-62
2021/05/07 11:53:23;;;;;;;3.45;3.10;;;10.90;96.60;;;;;;5115689;27;20299;-62
2021/05/07 11:55:49;;;;;;;4.68;2.78;;;11.00;96.50;;;;;;5114167;27;20264;-63
2021/05/07 11:58:16;;;;;;;3.90;2.90;;;11.10;96.00;;;;;;5114870;27;20283;-62
2021/05/07 12:00:44;;;;;;;3.90;3.50;;;11.20;96.10;;;;;;5115852;27;20218;-62
2021/05/07 12:03:14;;;;;;;4.03;3.20;;;11.20;96.40;;;;;;5117259;27;20219;-63
2021/05/07 12:05:41;;;;;;;4.82;4.30;;;11.40;96.80;;;;;;5114979;27;20250;-62
2021/05/07 12:08:09;;;;;;;6.13;3.35;;;11.50;96.50;;;;;;5114445;27;20219;-63
2021/05/07 12:10:37;;;;;;;2.70;2.42;;;11.60;96.40;;;;;;5112506;27;20233;-62
2021/05/07 12:13:04;;;;;;;2.85;2.65;;;11.60;96.00;;;;;;5114086;27;20218;-62
2021/05/07 12:15:43;;;;;;;7.07;2.50;;;11.70;95.70;;;;;;5104909;27;20233;-63
2021/05/07 12:18:17;;;;;;;4.68;2.38;;;11.70;94.50;;;;;;5113496;27;20233;-63
2021/05/07 12:20:48;;;;;;;1.65;1.55;;;11.70;94.40;;;;;;5120716;27;20221;-62
2021/05/07 12:23:17;;;;;;;3.83;3.35;;;11.60;95.80;;;;;;5117501;27;20240;-62
2021/05/07 12:25:45;;;;;;;4.65;4.13;;;11.40;96.60;;;;;;5126960;27;20728;-62
2021/05/07 12:28:16;;;;;;;3.95;3.17;;;11.20;97.80;;;;;;5123154;27;20228;-62
2021/05/07 12:30:45;;;;;;;3.58;2.88;;;11.10;98.50;;;;;;5113275;27;20234;-62
2021/05/07 12:33:14;;;;;;;2.38;2.17;;;11.00;99.30;;;;;;5114784;27;20230;-63
2021/05/07 12:35:43;;;;;;;3.95;2.85;;;11.00;99.90;;;;;;5113951;27;20268;-63
2021/05/07 12:38:33;;;;;;;4.30;3.65;;;11.00;99.80;;;;;;5115696;27;20242;-63
2021/05/07 12:41:01;;;;;;;3.50;3.20;;;11.00;99.90;;;;;;5113299;27;20563;-63
2021/05/07 12:43:33;;;;;;;3.15;2.50;;;11.00;99.90;;;;;;5115705;27;20671;-63
2021/05/07 12:46:00;;;;;;;2.28;2.05;;;11.00;99.90;;;;;;5115292;27;20223;-62
2021/05/07 12:48:27;;;;;;;4.53;3.33;;;11.00;99.90;;;;;;5110923;27;20306;-63
2021/05/07 12:50:54;;;;;;;11.27;9.07;;;11.00;99.90;;;;;;5114810;27;20229;-63